Time;durP1;ratioP1;P1;durP2;ratioP2;P2;SDS_P1;SDS_P2;PMS_P1;PMS_P2;Temp;Humidity;BMP_temperature;BMP_pressure;BME280_temperature;BME280_humidity;BME280_pressure;Samples;Min_cycle;Max_cycle;Signal;HPM_P1;HPM_P2
2023/07/05 00:00:47;;;;;;;11.40;5.97;;;;;;;39.13;nan;101029.91;5103708;28;20055;-48
2023/07/05 00:03:14;;;;;;;15.30;7.20;;;;;;;39.02;nan;101022.53;5112949;28;20055;-50
2023/07/05 00:05:40;;;;;;;11.68;6.68;;;;;;;39.15;nan;101021.38;5104211;28;20047;-48
2023/07/05 00:08:07;;;;;;;12.20;7.10;;;;;;;39.19;nan;101023.38;5104764;28;20048;-48
2023/07/05 00:10:35;;;;;;;13.27;8.52;;;;;;;39.14;nan;101023.31;5097380;28;20051;-50
2023/07/05 00:13:02;;;;;;;12.68;6.95;;;;;;;39.14;nan;101020.53;5101197;28;20078;-48
2023/07/05 00:15:30;;;;;;;18.25;7.15;;;;;;;39.23;nan;101018.16;5103751;28;20052;-48
2023/07/05 00:17:58;;;;;;;17.92;8.07;;;;;;;39.23;nan;101007.94;5092342;28;20048;-50
2023/07/05 00:20:25;;;;;;;13.10;6.32;;;;;;;39.21;nan;101007.38;5104314;28;20059;-48
2023/07/05 00:22:52;;;;;;;14.68;6.55;;;;;;;39.09;nan;101003.91;5106217;28;20058;-48
2023/07/05 00:25:19;;;;;;;14.32;7.25;;;;;;;39.37;nan;100999.28;5108875;28;20357;-48
2023/07/05 00:27:47;;;;;;;16.00;6.88;;;;;;;39.29;nan;100995.03;5112506;28;20062;-48
2023/07/05 00:30:14;;;;;;;14.52;7.35;;;;;;;39.13;nan;100990.41;5102080;28;20044;-48
2023/07/05 00:32:41;;;;;;;15.15;7.15;;;;;;;39.23;nan;100991.34;5095068;28;20043;-48
2023/07/05 00:35:08;;;;;;;14.00;7.72;;;;;;;38.91;nan;100983.72;5099719;28;20128;-48
2023/07/05 00:37:34;;;;;;;15.52;8.43;;;;;;;39.20;nan;100985.50;5103228;28;20422;-48
2023/07/05 00:40:01;;;;;;;19.10;7.70;;;;;;;38.95;nan;100983.22;5092030;28;20052;-48
2023/07/05 00:42:28;;;;;;;18.55;7.10;;;;;;;39.28;nan;100980.41;5091898;28;20055;-48
2023/07/05 00:45:20;;;;;;;12.93;6.82;;;;;;;39.27;nan;100970.41;5090689;28;20060;-49
2023/07/05 00:47:47;;;;;;;12.10;6.75;;;;;;;39.12;nan;100972.13;5099803;28;20058;-49
2023/07/05 00:50:26;;;;;;;14.32;7.88;;;;;;;38.83;nan;100970.34;5108643;28;20061;-49
2023/07/05 00:52:54;;;;;;;11.57;6.85;;;;;;;38.92;nan;100968.81;5099621;28;20044;-49
2023/07/05 00:55:23;;;;;;;11.68;6.95;;;;;;;39.13;nan;100963.59;5099080;28;20466;-48
2023/07/05 00:57:50;;;;;;;20.85;7.85;;;;;;;39.15;nan;100961.41;5106594;28;20053;-49
2023/07/05 01:00:21;;;;;;;13.02;7.38;;;;;;;39.13;nan;100955.31;5098860;28;20349;-48
2023/07/05 01:02:54;;;;;;;13.38;6.30;;;;;;;38.87;nan;100957.66;5095252;28;20048;-49
2023/07/05 01:05:22;;;;;;;16.00;7.70;;;;;;;38.52;nan;100950.50;5102585;28;20055;-48
2023/07/05 01:07:48;;;;;;;14.65;7.00;;;;;;;38.97;nan;100953.41;5097475;28;20093;-50
2023/07/05 01:10:19;;;;;;;15.75;7.82;;;;;;;38.71;nan;100940.06;5096602;28;20380;-50
2023/07/05 01:12:57;;;;;;;24.00;8.48;;;;;;;39.36;nan;100939.56;5098466;28;20044;-50
2023/07/05 01:15:33;;;;;;;16.02;7.18;;;;;;;39.38;nan;100937.38;5106776;28;20047;-50
2023/07/05 01:18:09;;;;;;;12.65;6.97;;;;;;;39.19;nan;100931.34;5096394;28;20043;-50
2023/07/05 01:20:52;;;;;;;14.98;6.55;;;;;;;38.97;nan;100923.00;5116828;28;20047;-51
2023/07/05 01:23:44;;;;;;;13.43;6.70;;;;;;;39.27;nan;100914.31;5123727;28;20060;-49
2023/07/05 01:26:21;;;;;;;13.73;7.20;;;;;;;39.47;nan;100909.00;5106461;28;20052;-50
2023/07/05 01:29:12;;;;;;;19.98;7.28;;;;;;;39.40;nan;100907.53;5101038;28;20051;-49
2023/07/05 01:31:54;;;;;;;11.07;6.33;;;;;;;39.63;nan;100906.44;5113530;28;20384;-50
2023/07/05 01:34:46;;;;;;;11.45;5.88;;;;;;;39.52;nan;100911.03;5103472;28;20475;-49
2023/07/05 01:37:38;;;;;;;9.35;5.50;;;;;;;39.63;nan;100901.75;5115439;28;20059;-49
2023/07/05 01:40:15;;;;;;;10.85;7.00;;;;;;;39.02;nan;100903.72;5104431;28;20052;-49
2023/07/05 01:42:45;;;;;;;14.68;6.70;;;;;;;39.06;nan;100896.66;5110988;28;20047;-49
2023/07/05 01:45:12;;;;;;;11.73;6.22;;;;;;;39.32;nan;100899.69;5122137;28;20460;-49
2023/07/05 01:47:47;;;;;;;12.13;6.70;;;;;;;39.23;nan;100902.91;5105253;28;20043;-49
2023/07/05 01:50:29;;;;;;;10.55;6.40;;;;;;;39.62;nan;100891.75;5103507;28;20074;-49
2023/07/05 01:53:09;;;;;;;13.45;6.05;;;;;;;39.28;nan;100894.72;5115598;28;20052;-49
2023/07/05 01:55:44;;;;;;;17.38;5.93;;;;;;;39.36;nan;100887.03;5113921;27;20074;-49
2023/07/05 01:58:18;;;;;;;9.73;5.75;;;;;;;39.34;nan;100886.47;5099674;28;20059;-49
2023/07/05 02:00:48;;;;;;;12.35;6.63;;;;;;;39.09;nan;100890.59;5100314;28;20056;-49
2023/07/05 02:03:18;;;;;;;13.27;6.33;;;;;;;39.14;nan;100887.91;5095509;28;20052;-49
2023/07/05 02:05:47;;;;;;;12.98;7.93;;;;;;;39.11;nan;100882.88;5096569;28;20308;-49
2023/07/05 02:08:14;;;;;;;12.38;6.00;;;;;;;38.88;nan;100884.78;5103030;28;20058;-49
2023/07/05 02:10:41;;;;;;;13.23;5.80;;;;;;;39.08;nan;100880.63;5107453;28;20569;-49
2023/07/05 02:13:10;;;;;;;9.60;6.03;;;;;;;38.38;nan;100880.16;5107658;28;20055;-49
2023/07/05 02:15:40;;;;;;;15.07;5.97;;;;;;;38.79;nan;100869.72;5109900;28;20048;-50
2023/07/05 02:18:07;;;;;;;15.00;7.22;;;;;;;38.77;nan;100871.91;5096854;28;20414;-49
2023/07/05 02:20:35;;;;;;;13.55;6.15;;;;;;;38.62;nan;100871.72;5095653;28;20048;-49
2023/07/05 02:23:02;;;;;;;22.75;6.75;;;;;;;38.25;nan;100856.50;5097415;28;20056;-49
2023/07/05 02:25:30;;;;;;;12.63;6.57;;;;;;;38.01;nan;100853.06;5098283;28;20044;-49
2023/07/05 02:27:57;;;;;;;16.30;6.25;;;;;;;38.60;nan;100843.47;5108207;28;20047;-49
2023/07/05 02:30:26;;;;;;;13.68;7.22;;;;;;;38.58;nan;100848.44;5096308;28;20052;-49
2023/07/05 02:32:53;;;;;;;11.45;6.28;;;;;;;38.42;nan;100842.69;5101669;28;20055;-50
2023/07/05 02:35:19;;;;;;;11.60;6.05;;;;;;;38.50;nan;100833.97;5114339;28;20117;-49
2023/07/05 02:37:46;;;;;;;12.60;5.88;;;;;;;38.07;nan;100829.97;5097521;28;20044;-49
2023/07/05 02:40:12;;;;;;;10.13;6.45;;;;;;;37.93;nan;100828.69;5094115;28;20357;-49
2023/07/05 02:42:39;;;;;;;14.13;5.63;;;;;;;38.74;nan;100818.06;5102468;28;20564;-49
2023/07/05 02:45:06;;;;;;;13.80;5.82;;;;;;;38.37;nan;100809.50;5095705;28;20043;-49
2023/07/05 02:47:33;;;;;;;11.38;6.85;;;;;;;36.86;nan;100804.31;5111291;28;20462;-49
2023/07/05 02:49:59;;;;;;;12.63;6.63;;;;;;;38.19;nan;100800.41;5093804;28;20062;-49
2023/07/05 02:52:26;;;;;;;11.35;6.03;;;;;;;38.05;nan;100793.53;5094083;28;20055;-49
2023/07/05 02:54:52;;;;;;;17.55;6.20;;;;;;;37.88;nan;100787.19;5106539;28;20052;-49
2023/07/05 02:57:19;;;;;;;11.07;5.60;;;;;;;38.29;nan;100783.19;5106867;28;20044;-49
2023/07/05 02:59:45;;;;;;;14.02;6.05;;;;;;;38.21;nan;100788.31;5099697;28;20044;-49
2023/07/05 03:02:12;;;;;;;11.60;5.45;;;;;;;38.87;nan;100785.59;5114541;28;20074;-49
2023/07/05 03:04:41;;;;;;;8.98;5.85;;;;;;;38.22;nan;100787.19;5102300;28;20056;-50
2023/07/05 03:07:08;;;;;;;11.32;5.30;;;;;;;38.64;nan;100783.94;5096980;28;20047;-49
2023/07/05 03:09:35;;;;;;;13.98;5.63;;;;;;;38.39;nan;100782.47;5113866;28;20058;-49
2023/07/05 03:12:02;;;;;;;12.88;5.30;;;;;;;38.43;nan;100783.63;5106505;28;20059;-49
2023/07/05 03:14:29;;;;;;;12.57;6.18;;;;;;;39.07;nan;100782.25;5094310;28;20051;-49
2023/07/05 03:16:55;;;;;;;9.05;5.35;;;;;;;38.97;nan;100782.13;5110573;28;20051;-49
2023/07/05 03:19:22;;;;;;;16.23;6.07;;;;;;;37.68;nan;100787.69;5093313;28;20491;-49
2023/07/05 03:21:49;;;;;;;16.58;6.00;;;;;;;38.79;nan;100780.53;5093688;28;20052;-51
2023/07/05 03:24:15;;;;;;;9.90;5.65;;;;;;;37.69;nan;100795.72;5093133;28;20060;-49
2023/07/05 03:26:42;;;;;;;10.20;5.93;;;;;;;38.45;nan;100792.50;5093194;28;20060;-49
2023/07/05 03:29:09;;;;;;;16.17;6.30;;;;;;;38.98;nan;100783.78;5093370;28;20048;-50
2023/07/05 03:31:35;;;;;;;12.13;5.47;;;;;;;38.41;nan;100785.00;5092702;28;20153;-50
2023/07/05 03:34:02;;;;;;;11.27;5.82;;;;;;;38.82;nan;100769.78;5092768;28;20372;-50
2023/07/05 03:36:28;;;;;;;8.05;5.60;;;;;;;38.49;nan;100766.03;5092634;28;20043;-49
2023/07/05 03:38:55;;;;;;;14.57;5.65;;;;;;;38.31;nan;100771.88;5093433;28;20048;-48
2023/07/05 03:41:24;;;;;;;12.82;7.97;;;;;;;38.06;nan;100762.13;5093215;28;20452;-48
2023/07/05 03:43:57;;;;;;;8.23;5.85;;;;;;;38.15;nan;100766.13;5092697;28;20529;-48
2023/07/05 03:46:24;;;;;;;14.05;5.50;;;;;;;38.09;nan;100761.63;5092577;28;20067;-48
2023/07/05 03:48:51;;;;;;;11.85;6.50;;;;;;;38.45;nan;100762.16;5093118;28;20060;-48
2023/07/05 03:51:20;;;;;;;10.63;5.70;;;;;;;37.53;nan;100758.75;5095641;28;20056;-48
2023/07/05 03:53:56;;;;;;;11.15;5.68;;;;;;;38.17;nan;100747.41;5094486;28;20052;-48
2023/07/05 03:56:24;;;;;;;7.60;5.30;;;;;;;39.47;nan;100742.28;5092583;28;20059;-48
2023/07/05 03:58:50;;;;;;;7.88;5.70;;;;;;;38.38;nan;100750.44;5092521;28;20047;-50
2023/07/05 04:01:19;;;;;;;12.95;5.63;;;;;;;37.79;nan;100745.44;5092828;28;20440;-48
2023/07/05 04:03:49;;;;;;;9.48;5.15;;;;;;;38.13;nan;100740.69;5106878;28;20047;-48
2023/07/05 04:06:17;;;;;;;12.18;5.65;;;;;;;38.60;nan;100738.56;5104598;28;20045;-48
2023/07/05 04:08:44;;;;;;;13.85;6.57;;;;;;;38.91;nan;100735.09;5108846;28;20047;-48
2023/07/05 04:11:11;;;;;;;9.70;5.28;;;;;;;38.85;nan;100738.91;5112312;28;20059;-48
2023/07/05 04:13:38;;;;;;;10.68;5.95;;;;;;;40.07;nan;100725.63;5112825;28;20047;-48
2023/07/05 04:16:10;;;;;;;10.48;5.57;;;;;;;38.94;nan;100719.91;5112809;28;20065;-48
2023/07/05 04:18:38;;;;;;;9.52;5.80;;;;;;;39.77;nan;100708.53;5113066;28;20048;-48
2023/07/05 04:21:05;;;;;;;8.52;5.22;;;;;;;39.10;nan;100715.41;5094548;28;20391;-49
2023/07/05 04:23:32;;;;;;;12.05;6.13;;;;;;;37.67;nan;100715.19;5098479;28;20063;-49
2023/07/05 04:26:00;;;;;;;9.25;5.50;;;;;;;38.37;nan;100704.63;5092240;28;20430;-51
2023/07/05 04:28:27;;;;;;;14.63;6.20;;;;;;;37.75;nan;100706.50;5092985;28;20055;-48
2023/07/05 04:30:54;;;;;;;14.32;5.65;;;;;;;39.24;nan;100710.31;5092460;28;20124;-48
2023/07/05 04:33:21;;;;;;;11.07;5.88;;;;;;;38.73;nan;100699.56;5094311;28;20059;-49
2023/07/05 04:35:50;;;;;;;10.82;5.05;;;;;;;39.51;nan;100709.44;5118048;28;20122;-49
2023/07/05 04:38:17;;;;;;;12.73;5.75;;;;;;;38.60;nan;100700.78;5097069;28;20044;-49
2023/07/05 04:40:44;;;;;;;19.13;5.75;;;;;;;38.91;nan;100690.91;5093466;28;20654;-49
2023/07/05 04:43:10;;;;;;;9.80;5.22;;;;;;;38.85;nan;100694.69;5112314;28;20063;-49
2023/07/05 04:45:37;;;;;;;13.32;6.70;;;;;;;39.20;nan;100687.91;5116348;28;20062;-49
2023/07/05 04:48:04;;;;;;;15.07;5.65;;;;;;;38.65;nan;100697.25;5116517;28;20055;-49
2023/07/05 04:50:31;;;;;;;13.50;5.88;;;;;;;38.28;nan;100690.44;5116657;28;20051;-48
2023/07/05 04:52:57;;;;;;;10.40;5.47;;;;;;;37.97;nan;100691.91;5116075;28;20047;-49
2023/07/05 04:55:24;;;;;;;12.52;5.60;;;;;;;39.75;nan;100680.31;5115101;28;20048;-49
2023/07/05 04:57:51;;;;;;;12.30;5.85;;;;;;;38.17;nan;100681.19;5097127;28;20112;-49
2023/07/05 05:00:18;;;;;;;11.50;6.15;;;;;;;39.41;nan;100677.00;5102144;28;20052;-49
2023/07/05 05:02:44;;;;;;;10.38;6.00;;;;;;;38.90;nan;100682.88;5099742;28;20064;-49
2023/07/05 05:05:11;;;;;;;10.15;5.18;;;;;;;38.56;nan;100678.38;5099451;28;20056;-48
2023/07/05 05:07:37;;;;;;;12.90;5.32;;;;;;;39.11;nan;100678.41;5099363;27;20107;-48
2023/07/05 05:10:04;;;;;;;14.23;6.70;;;;;;;38.58;nan;100674.50;5117973;27;20044;-48
2023/07/05 05:12:31;;;;;;;12.10;5.47;;;;;;;39.02;nan;100668.91;5108535;27;20353;-49
2023/07/05 05:14:57;;;;;;;11.93;6.38;;;;;;;39.35;nan;100667.00;5115447;27;20440;-48
2023/07/05 05:17:25;;;;;;;13.52;5.70;;;;;;;38.59;nan;100671.47;5117511;27;20574;-49
2023/07/05 05:19:52;;;;;;;12.43;6.10;;;;;;;39.26;nan;100675.78;5124556;27;20095;-49
2023/07/05 05:22:19;;;;;;;9.05;5.32;;;;;;;39.59;nan;100667.47;5110200;27;20455;-49
2023/07/05 05:24:45;;;;;;;15.38;5.85;;;;;;;39.79;nan;100655.72;5131202;27;20065;-48
2023/07/05 05:27:12;;;;;;;17.88;5.85;;;;;;;39.09;nan;100666.81;5113674;28;20128;-49
2023/07/05 05:29:38;;;;;;;13.65;5.80;;;;;;;39.67;nan;100646.81;5126290;27;20051;-49
2023/07/05 05:32:06;;;;;;;11.23;5.88;;;;;;;39.18;nan;100643.09;5101755;27;20455;-49
2023/07/05 05:34:33;;;;;;;13.93;6.05;;;;;;;39.53;nan;100625.16;5130797;27;20055;-49
2023/07/05 05:36:59;;;;;;;12.77;5.40;;;;;;;39.31;nan;100622.47;5114050;27;20101;-49
2023/07/05 05:39:28;;;;;;;18.80;6.25;;;;;;;40.45;nan;100629.50;5115418;27;20051;-49
2023/07/05 05:41:54;;;;;;;13.13;5.85;;;;;;;40.49;nan;100630.59;5119450;27;20057;-49
2023/07/05 05:44:21;;;;;;;15.15;6.78;;;;;;;39.81;nan;100615.63;5122806;27;20039;-48
2023/07/05 05:46:48;;;;;;;17.20;6.13;;;;;;;39.42;nan;100612.34;5130302;27;20044;-49
2023/07/05 05:49:15;;;;;;;15.95;5.65;;;;;;;39.98;nan;100609.91;5122397;27;20051;-49
2023/07/05 05:51:41;;;;;;;20.00;7.13;;;;;;;38.73;nan;100603.72;5122841;27;20071;-49
2023/07/05 05:54:08;;;;;;;11.25;6.07;;;;;;;39.07;nan;100588.84;5101984;28;20055;-49
2023/07/05 05:56:34;;;;;;;18.20;5.75;;;;;;;39.65;nan;100589.81;5098211;27;20623;-49
2023/07/05 05:59:02;;;;;;;12.68;5.32;;;;;;;40.54;nan;100583.53;5120549;27;20402;-48
2023/07/05 06:01:29;;;;;;;10.77;5.82;;;;;;;40.13;nan;100575.94;5113157;27;20067;-49
2023/07/05 06:03:56;;;;;;;13.35;6.20;;;;;;;40.30;nan;100572.97;5125790;27;20431;-49
2023/07/05 06:06:22;;;;;;;15.68;6.03;;;;;;;39.13;nan;100568.47;5109916;27;20064;-49
2023/07/05 06:08:49;;;;;;;17.00;5.75;;;;;;;42.02;nan;100562.28;5105506;27;20062;-49
2023/07/05 06:11:16;;;;;;;13.10;6.28;;;;;;;39.76;nan;100556.69;5109332;27;20055;-49
2023/07/05 06:13:42;;;;;;;18.50;7.15;;;;;;;38.72;nan;100555.13;5107123;27;20735;-49
2023/07/05 06:16:09;;;;;;;11.73;5.43;;;;;;;40.65;nan;100557.53;5110388;27;20347;-49
2023/07/05 06:18:40;;;;;;;19.38;6.15;;;;;;;40.59;nan;100555.84;5109743;27;20051;-49
2023/07/05 06:21:07;;;;;;;12.05;6.22;;;;;;;38.94;nan;100543.13;5124016;27;20371;-49
2023/07/05 06:23:33;;;;;;;15.10;6.75;;;;;;;40.03;nan;100544.66;5098103;27;20067;-49
2023/07/05 06:26:00;;;;;;;19.88;6.30;;;;;;;39.40;nan;100531.59;5123974;27;20158;-49
2023/07/05 06:28:27;;;;;;;14.63;7.13;;;;;;;39.70;nan;100538.41;5120631;27;20056;-49
2023/07/05 06:30:53;;;;;;;16.08;6.65;;;;;;;39.97;nan;100536.34;5130275;27;20048;-49
2023/07/05 06:33:20;;;;;;;13.80;7.47;;;;;;;41.79;nan;100534.09;5123850;27;20054;-49
2023/07/05 06:35:48;;;;;;;15.77;6.22;;;;;;;40.11;nan;100530.28;5117763;27;20452;-49
2023/07/05 06:38:15;;;;;;;20.17;6.35;;;;;;;39.62;nan;100518.47;5113038;27;20051;-50
2023/07/05 06:40:42;;;;;;;15.10;6.43;;;;;;;40.38;nan;100524.53;5107919;27;20044;-49
2023/07/05 06:43:09;;;;;;;20.08;7.90;;;;;;;39.46;nan;100519.47;5115118;27;20092;-49
2023/07/05 06:45:36;;;;;;;12.13;6.65;;;;;;;41.61;nan;100531.94;5124035;27;20394;-50
2023/07/05 06:48:02;;;;;;;11.55;7.03;;;;;;;40.87;nan;100545.34;5118851;27;20055;-49
2023/07/05 06:50:29;;;;;;;14.32;7.22;;;;;;;40.37;nan;100551.38;5119334;27;20393;-48
2023/07/05 06:52:56;;;;;;;29.83;8.35;;;;;;;42.91;nan;100531.72;5115449;27;20061;-48
2023/07/05 06:55:42;;;;;;;15.07;7.68;;;;;;;42.39;nan;100549.88;5111122;27;20051;-48
2023/07/05 06:58:08;;;;;;;18.02;7.65;;;;;;;43.84;nan;100555.78;5105710;27;20361;-49
2023/07/05 07:00:36;;;;;;;11.23;7.15;;;;;;;42.62;nan;100536.41;5127083;27;20043;-49
2023/07/05 07:03:02;;;;;;;15.82;8.02;;;;;;;42.53;nan;100545.34;5106964;27;20044;-49
2023/07/05 07:05:30;;;;;;;14.77;8.07;;;;;;;41.77;nan;100532.72;5113779;27;20047;-49
2023/07/05 07:07:57;;;;;;;19.48;8.57;;;;;;;42.22;nan;100521.69;5100655;27;20056;-48
2023/07/05 07:10:24;;;;;;;17.40;8.82;;;;;;;42.46;nan;100513.47;5108553;27;20044;-49
2023/07/05 07:12:51;;;;;;;18.02;8.98;;;;;;;41.16;nan;100512.34;5112880;27;20063;-49
2023/07/05 07:15:17;;;;;;;16.05;8.70;;;;;;;41.88;nan;100522.41;5110533;27;20116;-49
2023/07/05 07:17:45;;;;;;;16.88;9.07;;;;;;;42.26;nan;100523.59;5121407;27;20367;-48
2023/07/05 07:20:13;;;;;;;17.70;8.90;;;;;;;43.52;nan;100520.25;5129866;27;20054;-49
2023/07/05 07:22:41;;;;;;;24.17;9.90;;;;;;;44.78;nan;100511.50;5113870;27;20066;-49
2023/07/05 07:25:08;;;;;;;21.85;11.02;;;;;;;43.15;nan;100507.88;5125274;27;20058;-48
2023/07/05 07:27:34;;;;;;;16.45;9.82;;;;;;;42.64;nan;100498.06;5107479;27;20395;-50
2023/07/05 07:30:02;;;;;;;17.77;10.57;;;;;;;44.83;nan;100508.63;5115727;27;20416;-48
2023/07/05 07:32:29;;;;;;;22.40;9.88;;;;;;;44.59;nan;100509.59;5123175;27;20066;-48
2023/07/05 07:34:55;;;;;;;19.30;10.35;;;;;;;43.62;nan;100509.03;5130604;27;20061;-48
2023/07/05 07:37:23;;;;;;;22.63;11.38;;;;;;;43.59;nan;100516.00;5116559;27;20048;-50
2023/07/05 07:39:49;;;;;;;18.80;10.82;;;;;;;43.31;nan;100514.94;5101436;27;20067;-49
2023/07/05 07:42:16;;;;;;;25.88;10.75;;;;;;;44.72;nan;100519.94;5120411;27;20478;-49
2023/07/05 07:44:43;;;;;;;21.38;11.95;;;;;;;45.64;nan;100516.56;5111800;27;20047;-49
2023/07/05 07:47:10;;;;;;;18.10;10.60;;;;;;;46.94;nan;100523.59;5123594;27;20066;-49
2023/07/05 07:49:37;;;;;;;16.50;10.02;;;;;;;44.56;nan;100535.25;5119243;27;20051;-49
2023/07/05 07:52:04;;;;;;;19.70;11.95;;;;;;;44.03;nan;100532.69;5117402;27;20059;-49
2023/07/05 07:54:31;;;;;;;19.83;11.57;;;;;;;46.29;nan;100531.34;5098179;27;20463;-49
2023/07/05 07:56:57;;;;;;;17.85;10.07;;;;;;;45.02;nan;100539.25;5115062;27;20121;-48
2023/07/05 07:59:24;;;;;;;22.80;11.02;;;;;;;44.50;nan;100544.81;5113032;27;20066;-48
2023/07/05 08:01:51;;;;;;;19.83;11.38;;;;;;;43.02;nan;100546.34;5112856;27;20055;-49
2023/07/05 08:04:18;;;;;;;18.63;10.63;;;;;;;43.46;nan;100552.88;5111328;28;20051;-49
2023/07/05 08:06:45;;;;;;;16.98;10.73;;;;;;;45.42;nan;100554.41;5112486;27;20057;-49
2023/07/05 08:09:17;;;;;;;23.60;11.90;;;;;;;42.78;nan;100562.94;5125325;27;20043;-49
2023/07/05 08:11:44;;;;;;;22.27;12.57;;;;;;;44.25;nan;100558.00;5116857;27;20063;-49
2023/07/05 08:14:15;;;;;;;20.08;11.90;;;;;;;45.55;nan;100547.16;5128817;28;20417;-49
2023/07/05 08:16:43;;;;;;;22.75;11.55;;;;;;;44.05;nan;100544.38;5107294;28;20051;-49
2023/07/05 08:19:10;;;;;;;23.35;12.10;;;;;;;45.26;nan;100539.06;5117934;27;20422;-49
2023/07/05 08:21:37;;;;;;;19.50;11.07;;;;;;;42.85;nan;100541.22;5111285;27;20415;-48
2023/07/05 08:24:04;;;;;;;18.48;10.93;;;;;;;41.04;nan;100554.22;5114642;28;20051;-48
2023/07/05 08:26:50;;;;;;;19.70;11.88;;;;;;;44.34;nan;100547.84;5113493;27;20054;-49
2023/07/05 08:29:16;;;;;;;19.45;11.18;;;;;;;45.38;nan;100553.34;5107669;27;20048;-49
2023/07/05 08:31:46;;;;;;;19.65;11.10;;;;;;;42.74;nan;100545.19;5128922;27;20059;-49
2023/07/05 08:34:13;;;;;;;18.00;10.13;;;;;;;43.08;nan;100541.59;5120165;27;20482;-49
2023/07/05 08:36:41;;;;;;;16.48;9.63;;;;;;;42.98;nan;100536.09;5105771;27;20051;-49
2023/07/05 08:39:11;;;;;;;23.67;9.90;;;;;;;42.24;nan;100544.44;5103936;27;20092;-48
2023/07/05 08:41:44;;;;;;;20.00;9.73;;;;;;;43.60;nan;100534.34;5111023;27;20052;-49
2023/07/05 08:44:30;;;;;;;17.70;9.52;;;;;;;43.73;nan;100546.72;5110846;27;20109;-49
2023/07/05 08:47:04;;;;;;;17.58;10.43;;;;;;;42.49;nan;100549.81;5100047;27;20051;-49
2023/07/05 08:49:41;;;;;;;16.02;9.48;;;;;;;44.97;nan;100542.13;5109856;27;20051;-49
2023/07/05 08:52:20;;;;;;;24.50;9.77;;;;;;;42.36;nan;100544.91;5115198;27;20047;-48
2023/07/05 08:54:51;;;;;;;17.58;9.52;;;;;;;43.80;nan;100543.59;5098112;27;20443;-49
2023/07/05 08:57:26;;;;;;;16.25;9.80;;;;;;;45.68;nan;100533.50;5105970;27;20144;-49
2023/07/05 09:00:11;;;;;;;14.18;9.27;;;;;;;44.65;nan;100530.66;5121690;27;20048;-49
2023/07/05 09:02:38;;;;;;;17.45;8.77;;;;;;;41.66;nan;100533.88;5127826;27;20074;-49
2023/07/05 09:05:48;;;;;;;15.48;8.48;;;;;;;42.51;nan;100525.34;5125180;27;20097;-49
2023/07/05 09:08:30;;;;;;;13.23;7.90;;;;;;;43.32;nan;100535.22;5083821;27;21138;-49
2023/07/05 09:11:13;;;;;;;15.27;9.52;;;;;;;42.44;nan;100547.09;5119588;27;20644;-49
2023/07/05 09:13:41;;;;;;;18.38;8.98;;;;;;;45.40;nan;100555.81;5103225;27;20055;-50
2023/07/05 09:16:41;;;;;;;18.30;8.82;;;;;;;44.24;nan;100539.66;5111745;27;20058;-49
2023/07/05 09:19:35;;;;;;;16.25;9.13;;;;;;;43.24;nan;100533.91;5103333;27;20112;-49
2023/07/05 09:22:07;;;;;;;16.27;8.75;;;;;;;41.94;nan;100549.03;5120822;27;20047;-49
2023/07/05 09:24:40;;;;;;;16.58;7.97;;;;;;;44.02;nan;100533.84;5123670;27;20469;-49
2023/07/05 09:27:26;;;;;;;13.15;8.25;;;;;;;42.64;nan;100536.97;5115207;27;20368;-49
2023/07/05 09:29:59;;;;;;;14.25;7.97;;;;;;;42.28;nan;100531.66;5097806;27;20051;-49
2023/07/05 09:32:34;;;;;;;17.65;8.40;;;;;;;43.53;nan;100539.44;5124884;27;20052;-49
2023/07/05 09:35:01;;;;;;;15.75;9.15;;;;;;;41.21;nan;100542.00;5115558;27;20501;-49
2023/07/05 09:37:34;;;;;;;12.45;7.03;;;;;;;43.76;nan;100526.63;5114726;27;20055;-49
2023/07/05 09:40:17;;;;;;;17.15;7.97;;;;;;;42.87;nan;100533.41;5119781;27;20051;-49
2023/07/05 09:43:05;;;;;;;13.43;7.72;;;;;;;43.34;nan;100527.38;5110146;27;20046;-49
2023/07/05 09:45:31;;;;;;;16.25;8.75;;;;;;;43.71;nan;100534.22;5122302;27;20069;-49
2023/07/05 09:48:03;;;;;;;16.85;7.82;;;;;;;43.70;nan;100526.97;5113886;27;20130;-49
2023/07/05 09:50:30;;;;;;;12.88;6.50;;;;;;;42.86;nan;100517.84;5131386;27;20146;-49
2023/07/05 09:53:28;;;;;;;15.27;7.78;;;;;;;40.65;nan;100535.38;5117133;27;20058;-49
2023/07/05 09:56:05;;;;;;;14.25;6.63;;;;;;;42.22;nan;100516.13;5109096;27;20463;-49
2023/07/05 09:58:33;;;;;;;11.43;6.90;;;;;;;44.25;nan;100515.41;5118543;27;20056;-49
2023/07/05 10:01:04;;;;;;;14.63;6.65;;;;;;;44.40;nan;100511.56;5113214;27;20444;-50
2023/07/05 10:03:37;;;;;;;16.13;6.40;;;;;;;45.11;nan;100522.66;5117170;27;20054;-49
2023/07/05 10:06:10;;;;;;;11.15;6.03;;;;;;;46.19;nan;100509.25;5116230;27;20054;-50
2023/07/05 10:08:45;;;;;;;8.07;5.25;;;;;;;47.90;nan;100516.38;5113006;27;20054;-49
2023/07/05 10:11:23;;;;;;;11.20;6.15;;;;;;;41.30;nan;100522.91;5108825;27;20047;-49
2023/07/05 10:14:10;;;;;;;11.18;5.82;;;;;;;44.19;nan;100511.91;5121092;27;20071;-49
2023/07/05 10:16:49;;;;;;;10.85;5.18;;;;;;;44.08;nan;100502.00;5127625;27;20055;-50
2023/07/05 10:19:30;;;;;;;9.30;5.00;;;;;;;45.78;nan;100489.47;5119994;27;20051;-49
2023/07/05 10:22:13;;;;;;;;;;;;;;;45.39;nan;100498.41;5115818;27;20051;-49
2023/07/05 10:24:46;;;;;;;7.88;4.05;;;;;;;42.56;nan;100493.97;5105092;27;19923;-49
2023/07/05 10:27:34;;;;;;;9.38;4.22;;;;;;;41.14;nan;100497.13;5102966;27;20048;-49
2023/07/05 10:30:26;;;;;;;8.23;3.78;;;;;;;44.82;nan;100496.66;5112921;27;20168;-49
2023/07/05 10:33:16;;;;;;;12.00;4.35;;;;;;;43.70;nan;100494.44;5097131;27;20051;-49
2023/07/05 10:35:47;;;;;;;7.30;3.83;;;;;;;43.55;nan;100492.69;5100989;28;20407;-49
2023/07/05 10:38:27;;;;;;;10.45;3.70;;;;;;;43.26;nan;100499.13;5096956;27;20166;-49
2023/07/05 10:40:56;;;;;;;;;;;;;;;44.79;nan;100502.00;5102330;27;20105;-49
2023/07/05 10:43:23;;;;;;;9.93;3.90;;;;;;;42.82;nan;100502.91;5114330;27;19919;-49
2023/07/05 10:45:50;;;;;;;7.18;3.42;;;;;;;44.92;nan;100498.41;5114996;27;20043;-49
2023/07/05 10:48:30;;;;;;;5.28;2.92;;;;;;;42.48;nan;100502.88;5104454;27;20039;-49
2023/07/05 10:50:57;;;;;;;4.88;3.05;;;;;;;42.56;nan;100504.25;5116508;27;20051;-49
2023/07/05 10:53:27;;;;;;;8.25;3.03;;;;;;;43.42;nan;100508.16;5116611;27;20371;-49
2023/07/05 10:56:09;;;;;;;6.28;2.58;;;;;;;43.71;nan;100506.41;5099660;27;20140;-50
2023/07/05 10:58:51;;;;;;;4.53;2.50;;;;;;;41.59;nan;100501.72;5105297;27;20454;-49
2023/07/05 11:01:24;;;;;;;5.10;2.63;;;;;;;42.66;nan;100515.28;5114558;27;20040;-49
2023/07/05 11:03:56;;;;;;;8.52;2.90;;;;;;;46.26;nan;100504.84;5111824;27;20052;-49
2023/07/05 11:06:24;;;;;;;4.97;2.55;;;;;;;46.05;nan;100515.66;5108302;27;20047;-49
2023/07/05 11:08:51;;;;;;;4.97;2.67;;;;;;;43.16;nan;100507.59;5100661;27;20584;-49
2023/07/05 11:11:28;;;;;;;6.20;2.50;;;;;;;42.85;nan;100502.31;5105385;27;20052;-49
2023/07/05 11:13:57;;;;;;;6.95;3.42;;;;;;;45.41;nan;100498.91;5099454;27;20047;-49
2023/07/05 11:16:25;;;;;;;4.30;2.50;;;;;;;45.42;nan;100495.81;5112340;27;20043;-49
2023/07/05 11:19:01;;;;;;;8.80;3.08;;;;;;;43.21;nan;100499.19;5111330;27;20050;-49
2023/07/05 11:21:41;;;;;;;10.57;2.90;;;;;;;45.18;nan;100503.53;5115137;27;20055;-49
2023/07/05 11:24:09;;;;;;;5.45;2.30;;;;;;;44.05;nan;100497.03;5095314;28;20056;-49
2023/07/05 11:26:37;;;;;;;5.75;2.40;;;;;;;45.40;nan;100503.69;5113777;27;20054;-50
2023/07/05 11:29:42;;;;;;;6.68;2.35;;;;;;;46.76;nan;100512.31;5093931;28;20451;-50
2023/07/05 11:32:09;;;;;;;3.75;1.90;;;;;;;43.48;nan;100503.34;5098921;28;20055;-50
2023/07/05 11:34:44;;;;;;;7.35;2.00;;;;;;;42.17;nan;100503.94;5106875;27;20051;-50
2023/07/05 11:37:10;;;;;;;4.45;2.42;;;;;;;44.12;nan;100514.19;5112846;27;20056;-49
2023/07/05 11:39:48;;;;;;;5.50;2.28;;;;;;;45.66;nan;100508.69;5123112;27;20047;-49
2023/07/05 11:42:15;;;;;;;5.88;3.08;;;;;;;44.79;nan;100504.78;5100295;27;20440;-50
2023/07/05 11:45:08;;;;;;;5.35;2.10;;;;;;;43.24;nan;100506.94;5098462;28;20055;-49
2023/07/05 11:47:34;;;;;;;3.50;2.28;;;;;;;45.54;nan;100511.19;5105201;28;20059;-49
2023/07/05 11:50:07;;;;;;;5.25;2.40;;;;;;;44.17;nan;100511.34;5108614;28;20055;-50